Etusivu
METAR-TAF:

METAR-TAF

Lentoasemat :

Cleveland, Mississippi, Yhdysvallat

Leveyspiiri: 33-45-40N, Pituuspiiri: 090-45-28W, korkeus merenpinnasta: 42 m

Tämänhetkinen sää

Tämä raportti tehtiin 29 minuuttia sitten, kello 04.15 UTC
Tuuli 5 kn kaakosta
Lämpötila 8°C
Kosteus 76%
Ilmanpaine 1020 hPa
Näkyvyys: 16.1 km
Hajanaisia pilviä 7500 ft:n korkeudessa
Hajonneita pilviä 10000 ft:n korkeudessa

METAR: KRNV 260415Z AUTO 13005KT 10SM SCT075 BKN100 08/04 A3013 RMK AO2 T00750040

Aika: 22:44 (04:44 UTC)


TAF: puuttuu

Säähavainnot ja -ennusteet yli 4000 lentoasemalta (METAR- ja TAF-raportit).

Käytössä olevat sääasemat on merkitty karttaan keltaisilla ja punaisilla pisteillä.

Aseta hiiri pisteen päälle nähdäksesi sääaseman nimen.

Klikkaa sitten nähdäksesi säähavainnot ja -ennusteet.

Kartan vaihtaminen: klikkaa mustalla rastilla varustettuja vihreitä pisteitä, niin voit zoomata sisään; viivalla varustettua vihreää pistettä, niin voit zoomata ulos tai vihreitä nuolia, niin pääset viereisille kartoille.


METAR-TAF: